createdAt,value
2022-11-27T00:01:25.164Z,22.83
2022-11-27T00:05:26.866Z,25.90
2022-11-27T00:09:28.472Z,20.08
2022-11-27T00:13:30.322Z,18.45
2022-11-27T00:17:32.057Z,21.58
2022-11-27T00:21:35.722Z,19.40
2022-11-27T00:25:37.505Z,21.10
2022-11-27T00:29:39.204Z,18.30
2022-11-27T00:33:40.932Z,19.05
2022-11-27T00:37:42.840Z,16.75
2022-11-27T00:41:45.292Z,20.80
2022-11-27T00:45:50.410Z,15.90
2022-11-27T00:49:52.002Z,14.25
2022-11-27T00:53:54.371Z,17.52
2022-11-27T00:57:56.023Z,19.45
2022-11-27T01:01:57.667Z,17.33
2022-11-27T01:06:04.663Z,18.45
2022-11-27T01:10:08.404Z,16.88
2022-11-27T01:14:16.207Z,15.77
2022-11-27T01:18:17.796Z,13.50
2022-11-27T01:22:19.403Z,17.58
2022-11-27T01:26:21.913Z,17.42
2022-11-27T01:30:23.691Z,16.38
2022-11-27T01:34:25.302Z,15.70
2022-11-27T01:38:31.404Z,13.30
2022-11-27T01:46:48.737Z,15.52
2022-11-27T01:50:50.543Z,13.67
2022-11-27T01:55:12.575Z,15.63
2022-11-27T01:59:16.609Z,12.70
2022-11-27T02:03:18.495Z,14.13
2022-11-27T02:07:20.479Z,14.57
2022-11-27T02:11:22.204Z,16.48
2022-11-27T02:15:38.912Z,13.02
2022-11-27T02:20:37.026Z,12.80
2022-11-27T02:24:47.810Z,11.40
2022-11-27T02:29:09.099Z,9.52
2022-11-27T02:33:12.680Z,14.88
2022-11-27T02:37:22.544Z,14.82
2022-11-27T02:41:33.243Z,13.50
2022-11-27T02:45:47.551Z,11.88
2022-11-27T02:49:51.389Z,13.50
2022-11-27T02:54:02.789Z,13.00
2022-11-27T02:58:09.629Z,11.73
2022-11-27T03:02:17.673Z,10.85
2022-11-27T03:06:36.178Z,11.77
2022-11-27T03:11:05.563Z,12.60
2022-11-27T03:15:07.763Z,11.70
2022-11-27T03:19:24.123Z,10.02
2022-11-27T03:27:40.714Z,10.88
2022-11-27T03:31:43.528Z,8.88
2022-11-27T03:35:45.681Z,8.80
2022-11-27T03:39:48.077Z,13.05
2022-11-27T03:43:57.684Z,9.82
2022-11-27T03:48:25.074Z,13.52
2022-11-27T03:52:42.805Z,13.55
2022-11-27T03:57:10.635Z,10.15
2022-11-27T04:01:17.361Z,9.70
2022-11-27T04:05:20.459Z,11.57
2022-11-27T04:09:22.096Z,9.35
2022-11-27T04:13:23.980Z,10.52
2022-11-27T04:17:26.138Z,9.98
2022-11-27T04:21:27.804Z,9.52
2022-11-27T04:25:29.420Z,9.95
2022-11-27T04:29:31.152Z,12.75
2022-11-27T04:33:33.388Z,8.73
2022-11-27T04:37:38.482Z,7.05
2022-11-27T04:41:40.283Z,8.65
2022-11-27T04:45:41.924Z,8.55
2022-11-27T04:49:43.576Z,9.30
2022-11-27T04:53:45.174Z,8.75
2022-11-27T04:57:46.816Z,6.97
2022-11-27T05:01:48.462Z,8.75
2022-11-27T05:05:58.102Z,8.25
2022-11-27T05:09:59.966Z,8.27
2022-11-27T05:14:17.826Z,8.05
2022-11-27T05:18:19.453Z,6.78
2022-11-27T05:22:21.418Z,10.13
2022-11-27T05:26:23.254Z,6.40
2022-11-27T05:30:24.932Z,6.38
2022-11-27T05:34:26.519Z,7.10
2022-11-27T05:38:28.146Z,4.88
2022-11-27T05:42:29.758Z,6.63
2022-11-27T05:46:31.885Z,5.55
2022-11-27T05:50:33.808Z,5.65
2022-11-27T05:54:35.419Z,5.85
2022-11-27T05:58:38.156Z,7.40
2022-11-27T06:02:39.887Z,6.28
2022-11-27T06:06:41.630Z,7.15
2022-11-27T06:10:43.212Z,7.22
2022-11-27T06:14:44.824Z,8.57
2022-11-27T06:18:49.915Z,7.45
2022-11-27T06:22:55.801Z,5.70
2022-11-27T06:26:57.385Z,7.22
2022-11-27T06:30:58.977Z,5.28
2022-11-27T06:35:00.616Z,7.03
2022-11-27T06:39:04.330Z,4.78
2022-11-27T06:43:05.929Z,6.43
2022-11-27T06:47:08.071Z,6.55
2022-11-27T06:51:14.633Z,6.65
2022-11-27T06:55:16.514Z,7.45
2022-11-27T06:59:19.143Z,7.85
2022-11-27T07:03:21.229Z,5.13
2022-11-27T07:07:22.887Z,5.28
2022-11-27T07:11:27.398Z,5.88
2022-11-27T07:15:29.160Z,6.07
2022-11-27T07:19:30.799Z,5.80
2022-11-27T07:23:32.633Z,4.50
2022-11-27T07:27:34.319Z,6.28
2022-11-27T07:31:35.927Z,5.95
2022-11-27T07:35:37.562Z,4.97
2022-11-27T07:40:01.367Z,6.53
2022-11-27T07:44:01.869Z,3.88
2022-11-27T07:48:03.760Z,6.20
2022-11-27T07:52:07.028Z,5.45
2022-11-27T07:56:10.627Z,4.30
2022-11-27T08:00:12.893Z,4.35
2022-11-27T08:04:14.602Z,5.78
2022-11-27T08:08:16.392Z,4.93
2022-11-27T08:12:18.004Z,4.38
2022-11-27T08:16:20.076Z,3.83
2022-11-27T08:20:21.913Z,3.50
2022-11-27T08:24:23.612Z,4.32
2022-11-27T08:28:25.285Z,3.38
2022-11-27T08:32:27.010Z,4.35
2022-11-27T08:36:28.699Z,4.68
2022-11-27T08:40:30.657Z,4.10
2022-11-27T08:44:32.268Z,3.88
2022-11-27T08:48:37.244Z,3.75
2022-11-27T08:52:38.899Z,3.78
2022-11-27T08:56:40.749Z,2.38
2022-11-27T09:00:42.629Z,5.55
2022-11-27T09:04:44.468Z,4.68
2022-11-27T09:08:46.163Z,6.50
2022-11-27T09:12:49.161Z,8.13
2022-11-27T09:16:51.251Z,7.10
2022-11-27T09:21:07.458Z,5.88
2022-11-27T09:25:09.742Z,8.07
2022-11-27T09:29:11.381Z,6.47
2022-11-27T09:33:13.130Z,7.95
2022-11-27T09:37:15.089Z,12.75
2022-11-27T09:41:19.754Z,8.82
2022-11-27T09:45:24.546Z,12.23
2022-11-27T09:49:51.792Z,9.23
2022-11-27T09:54:19.604Z,8.00
2022-11-27T09:58:42.540Z,12.85
2022-11-27T10:02:45.048Z,11.10
2022-11-27T10:07:25.509Z,11.77
2022-11-27T10:11:49.121Z,8.55
2022-11-27T10:16:01.318Z,12.25
2022-11-27T10:20:15.885Z,11.95
2022-11-27T10:24:45.689Z,12.38
2022-11-27T10:29:11.893Z,11.60
2022-11-27T10:33:20.174Z,11.50
2022-11-27T10:37:39.616Z,9.07
2022-11-27T10:42:01.825Z,10.73
2022-11-27T10:46:13.937Z,8.50
2022-11-27T10:50:19.939Z,11.65
2022-11-27T10:54:30.098Z,5.63
2022-11-27T10:58:39.791Z,6.65
2022-11-27T11:02:41.966Z,7.47
2022-11-27T11:06:46.797Z,10.25
2022-11-27T11:10:57.409Z,6.65
2022-11-27T11:15:00.679Z,9.55
2022-11-27T11:19:03.305Z,13.75
2022-11-27T11:23:06.504Z,8.88
2022-11-27T11:27:21.204Z,9.35
2022-11-27T11:31:30.393Z,7.60
2022-11-27T11:35:36.487Z,10.48
2022-11-27T11:44:01.740Z,12.23
2022-11-27T11:48:21.740Z,10.43
2022-11-27T11:52:40.764Z,6.07
2022-11-27T11:56:49.460Z,8.68
2022-11-27T12:01:25.983Z,8.75
2022-11-27T12:05:58.592Z,7.40
2022-11-27T12:10:14.103Z,6.72
2022-11-27T12:14:40.288Z,8.97
2022-11-27T12:18:54.405Z,8.45
2022-11-27T12:23:16.323Z,10.20
2022-11-27T12:27:42.245Z,5.93
2022-11-27T12:31:57.854Z,5.60
2022-11-27T12:36:40.580Z,6.30
2022-11-27T12:41:00.067Z,10.70
2022-11-27T12:45:22.631Z,6.00
2022-11-27T12:49:32.186Z,7.55
2022-11-27T12:53:45.548Z,12.98
2022-11-27T12:57:55.727Z,11.70
2022-11-27T13:02:23.004Z,13.90
2022-11-27T13:06:28.195Z,13.38
2022-11-27T13:10:43.439Z,11.05
2022-11-27T13:14:59.375Z,11.68
2022-11-27T13:19:19.717Z,9.48
2022-11-27T13:23:50.097Z,15.43
2022-11-27T13:27:53.851Z,15.68
2022-11-27T13:31:59.045Z,15.50
2022-11-27T13:36:03.811Z,15.40
2022-11-27T13:40:20.804Z,20.65
2022-11-27T13:44:27.406Z,15.48
2022-11-27T13:48:36.968Z,20.05
2022-11-27T13:52:49.756Z,16.27
2022-11-27T13:56:51.385Z,14.25
2022-11-27T14:00:53.086Z,15.38
2022-11-27T14:04:56.588Z,12.95
2022-11-27T14:09:01.625Z,20.15
2022-11-27T14:13:06.086Z,15.63
2022-11-27T14:17:26.740Z,16.05
2022-11-27T14:21:42.425Z,16.23
2022-11-27T14:25:44.106Z,16.83
2022-11-27T14:29:46.369Z,14.35
2022-11-27T14:34:13.666Z,15.90
2022-11-27T14:38:15.542Z,16.83
2022-11-27T14:42:29.074Z,13.65
2022-11-27T14:46:33.926Z,17.15
2022-11-27T14:50:35.675Z,16.20
2022-11-27T14:54:39.956Z,14.82
2022-11-27T14:58:53.013Z,15.90
2022-11-27T15:02:54.913Z,19.60
2022-11-27T15:06:58.268Z,15.77
2022-11-27T15:11:02.393Z,14.75
2022-11-27T15:15:09.855Z,15.93
2022-11-27T15:19:19.386Z,16.63
2022-11-27T15:23:33.938Z,16.42
2022-11-27T15:27:47.297Z,13.10
2022-11-27T15:31:52.405Z,14.80
2022-11-27T15:36:13.697Z,19.02
2022-11-27T15:40:22.993Z,14.45
2022-11-27T15:44:26.417Z,16.65
2022-11-27T15:48:28.021Z,15.40
2022-11-27T15:52:29.732Z,15.55
2022-11-27T15:56:31.449Z,14.15
2022-11-27T16:00:33.204Z,14.70
2022-11-27T16:04:36.025Z,17.83
2022-11-27T16:08:37.625Z,18.48
2022-11-27T16:12:39.825Z,16.02
2022-11-27T16:16:41.770Z,15.50
2022-11-27T16:20:43.619Z,15.50
2022-11-27T16:24:45.410Z,12.65
2022-11-27T16:28:47.867Z,14.63
2022-11-27T16:32:49.517Z,13.25
2022-11-27T16:36:51.247Z,11.57
2022-11-27T16:40:59.062Z,13.95
2022-11-27T16:45:00.770Z,14.00
2022-11-27T16:49:06.259Z,14.82
2022-11-27T16:53:07.960Z,10.95
2022-11-27T16:57:09.670Z,8.80
2022-11-27T17:01:13.858Z,15.15
2022-11-27T17:05:15.567Z,12.85
2022-11-27T17:09:17.716Z,12.93
2022-11-27T17:13:19.401Z,11.80
2022-11-27T17:17:21.024Z,12.38
2022-11-27T17:26:21.842Z,12.98
2022-11-27T17:30:23.416Z,9.55
2022-11-27T17:34:25.296Z,10.48
2022-11-27T17:38:26.944Z,9.93
2022-11-27T17:42:28.718Z,12.10
2022-11-27T17:46:30.703Z,10.68
2022-11-27T17:50:32.792Z,10.27
2022-11-27T17:54:34.712Z,12.50
2022-11-27T17:58:37.298Z,10.10
2022-11-27T18:02:39.045Z,10.88
2022-11-27T18:06:41.085Z,11.18
2022-11-27T18:10:43.013Z,11.27
2022-11-27T18:14:44.800Z,14.40
2022-11-27T18:18:47.308Z,13.45
2022-11-27T18:22:48.920Z,10.25
2022-11-27T18:31:15.646Z,11.40
2022-11-27T18:35:17.678Z,11.43
2022-11-27T18:39:19.474Z,12.95
2022-11-27T18:43:21.165Z,15.52
2022-11-27T18:47:22.893Z,14.07
2022-11-27T18:51:26.625Z,14.57
2022-11-27T18:55:28.417Z,17.17
2022-11-27T18:59:30.133Z,15.57
2022-11-27T19:03:31.913Z,9.23
2022-11-27T19:07:33.672Z,14.48
2022-11-27T19:11:35.952Z,10.57
2022-11-27T19:15:41.243Z,12.30
2022-11-27T19:19:54.309Z,11.73
2022-11-27T19:23:58.837Z,8.18
2022-11-27T19:28:03.322Z,9.70
2022-11-27T19:32:05.097Z,10.50
2022-11-27T19:36:11.396Z,12.85
2022-11-27T19:40:13.734Z,10.95
2022-11-27T19:44:17.363Z,10.82
2022-11-27T19:48:23.151Z,13.88
2022-11-27T19:56:29.144Z,13.93
2022-11-27T20:00:30.841Z,15.20
2022-11-27T20:04:32.469Z,11.43
2022-11-27T20:08:34.586Z,12.52
2022-11-27T20:12:38.248Z,13.65
2022-11-27T20:16:40.241Z,9.95
2022-11-27T20:20:41.919Z,11.25
2022-11-27T20:25:03.997Z,7.78
2022-11-27T20:29:05.501Z,8.73
2022-11-27T20:33:07.863Z,14.25
2022-11-27T20:37:09.794Z,13.20
2022-11-27T20:41:14.586Z,18.45
2022-11-27T20:45:20.359Z,19.20
2022-11-27T20:53:24.221Z,21.75
2022-11-27T20:57:26.403Z,20.23
2022-11-27T21:01:32.402Z,23.88
2022-11-27T21:05:34.433Z,20.40
2022-11-27T21:09:36.147Z,21.88
2022-11-27T21:13:37.999Z,19.55
2022-11-27T21:17:40.796Z,21.13
2022-11-27T21:21:42.425Z,31.05
2022-11-27T21:25:44.184Z,24.40
2022-11-27T21:29:45.995Z,21.83
2022-11-27T21:33:58.893Z,24.70
2022-11-27T21:38:00.844Z,24.27
2022-11-27T21:42:02.596Z,24.27
2022-11-27T21:46:08.817Z,24.67
2022-11-27T21:50:11.692Z,19.73
2022-11-27T21:54:15.199Z,19.52
2022-11-27T21:58:16.904Z,20.73
2022-11-27T22:02:18.698Z,26.48
2022-11-27T22:06:21.914Z,22.48
2022-11-27T22:10:23.681Z,25.23
2022-11-27T22:14:25.520Z,18.88
2022-11-27T22:18:27.191Z,20.13
2022-11-27T22:22:29.257Z,20.23
2022-11-27T22:26:30.894Z,20.58
2022-11-27T22:30:32.619Z,20.08
2022-11-27T22:34:34.289Z,21.85
2022-11-27T22:38:35.953Z,23.98
2022-11-27T22:42:37.694Z,19.45
2022-11-27T22:46:41.065Z,16.80
2022-11-27T22:50:42.781Z,17.17
2022-11-27T22:54:45.100Z,19.13
2022-11-27T22:58:46.862Z,13.88
2022-11-27T23:02:48.624Z,13.02
2022-11-27T23:06:50.264Z,16.40
2022-11-27T23:10:52.203Z,14.70
2022-11-27T23:14:54.004Z,12.60
2022-11-27T23:18:55.791Z,14.27
2022-11-27T23:22:57.597Z,11.80
2022-11-27T23:26:59.208Z,18.40
2022-11-27T23:31:28.786Z,14.73
2022-11-27T23:35:28.544Z,14.48
2022-11-27T23:39:30.164Z,15.93
2022-11-27T23:43:32.111Z,13.68
2022-11-27T23:47:33.703Z,13.50
2022-11-27T23:51:35.539Z,15.98
2022-11-27T23:55:37.523Z,13.27
2022-11-27T23:59:39.381Z,11.80
